sensor_id;sensor_type;location;lat;lon;timestamp;pressure;altitude;pressure_sealevel;temperature;humidity
9225;BME280;4647;48.072;11.616;2023-07-31T00:00:42;95455.84;;;16.82;63.34
9225;BME280;4647;48.072;11.616;2023-07-31T00:03:13;95448.19;;;16.77;63.50
9225;BME280;4647;48.072;11.616;2023-07-31T00:05:41;95450.34;;;16.60;63.96
9225;BME280;4647;48.072;11.616;2023-07-31T00:08:10;95449.91;;;16.49;64.90
9225;BME280;4647;48.072;11.616;2023-07-31T00:10:38;95446.94;;;16.34;65.17
9225;BME280;4647;48.072;11.616;2023-07-31T00:13:10;95445.50;;;16.30;66.08
9225;BME280;4647;48.072;11.616;2023-07-31T00:15:40;95443.03;;;16.22;65.96
9225;BME280;4647;48.072;11.616;2023-07-31T00:18:08;95451.47;;;16.03;66.85
9225;BME280;4647;48.072;11.616;2023-07-31T00:20:36;95444.94;;;16.00;66.92
9225;BME280;4647;48.072;11.616;2023-07-31T00:23:05;95409.34;;;15.78;66.81
9225;BME280;4647;48.072;11.616;2023-07-31T00:25:33;95422.69;;;15.76;67.28
9225;BME280;4647;48.072;11.616;2023-07-31T00:28:02;95436.66;;;15.78;67.44
9225;BME280;4647;48.072;11.616;2023-07-31T00:30:33;95424.97;;;15.78;67.50
9225;BME280;4647;48.072;11.616;2023-07-31T00:33:01;95438.41;;;15.85;67.45
9225;BME280;4647;48.072;11.616;2023-07-31T00:35:30;95438.94;;;15.92;67.91
9225;BME280;4647;48.072;11.616;2023-07-31T00:37:59;95426.63;;;15.88;67.93
9225;BME280;4647;48.072;11.616;2023-07-31T00:40:27;95435.13;;;15.90;68.29
9225;BME280;4647;48.072;11.616;2023-07-31T00:42:55;95419.63;;;15.87;67.83
9225;BME280;4647;48.072;11.616;2023-07-31T00:45:24;95426.50;;;15.91;68.31
9225;BME280;4647;48.072;11.616;2023-07-31T00:47:56;95417.66;;;15.87;68.44
9225;BME280;4647;48.072;11.616;2023-07-31T00:50:25;95421.88;;;16.01;68.55
9225;BME280;4647;48.072;11.616;2023-07-31T00:52:54;95429.31;;;16.01;68.69
9225;BME280;4647;48.072;11.616;2023-07-31T00:55:22;95419.38;;;15.94;68.69
9225;BME280;4647;48.072;11.616;2023-07-31T00:57:52;95424.31;;;15.86;69.58
9225;BME280;4647;48.072;11.616;2023-07-31T01:00:23;95427.59;;;15.81;69.30
9225;BME280;4647;48.072;11.616;2023-07-31T01:02:58;95422.34;;;15.87;69.39
9225;BME280;4647;48.072;11.616;2023-07-31T01:05:32;95404.53;;;15.82;69.25
9225;BME280;4647;48.072;11.616;2023-07-31T01:08:05;95402.53;;;15.95;68.96
9225;BME280;4647;48.072;11.616;2023-07-31T01:10:44;95419.31;;;16.07;68.53
9225;BME280;4647;48.072;11.616;2023-07-31T01:13:15;95418.09;;;16.20;68.48
9225;BME280;4647;48.072;11.616;2023-07-31T01:15:45;95413.97;;;16.16;68.52
9225;BME280;4647;48.072;11.616;2023-07-31T01:18:17;95404.81;;;16.10;68.64
9225;BME280;4647;48.072;11.616;2023-07-31T01:20:49;95407.41;;;16.13;69.04
9225;BME280;4647;48.072;11.616;2023-07-31T01:23:35;95406.16;;;16.27;67.98
9225;BME280;4647;48.072;11.616;2023-07-31T01:26:11;95402.47;;;16.21;68.15
9225;BME280;4647;48.072;11.616;2023-07-31T01:28:49;95388.97;;;16.26;68.20
9225;BME280;4647;48.072;11.616;2023-07-31T01:31:22;95395.06;;;16.31;68.19
9225;BME280;4647;48.072;11.616;2023-07-31T01:33:52;95390.66;;;16.46;67.34
9225;BME280;4647;48.072;11.616;2023-07-31T01:36:22;95385.31;;;16.42;67.88
9225;BME280;4647;48.072;11.616;2023-07-31T01:38:50;95394.78;;;16.50;67.87
9225;BME280;4647;48.072;11.616;2023-07-31T01:41:22;95374.06;;;16.40;67.97
9225;BME280;4647;48.072;11.616;2023-07-31T01:43:50;95390.69;;;16.55;67.38
9225;BME280;4647;48.072;11.616;2023-07-31T01:46:18;95392.66;;;16.54;67.59
9225;BME280;4647;48.072;11.616;2023-07-31T01:48:47;95379.13;;;16.51;67.62
9225;BME280;4647;48.072;11.616;2023-07-31T01:51:15;95383.16;;;16.59;67.51
9225;BME280;4647;48.072;11.616;2023-07-31T01:53:44;95385.75;;;16.63;67.51
9225;BME280;4647;48.072;11.616;2023-07-31T01:56:12;95375.41;;;16.57;67.82
9225;BME280;4647;48.072;11.616;2023-07-31T01:58:44;95366.75;;;16.59;67.48
9225;BME280;4647;48.072;11.616;2023-07-31T02:01:14;95382.25;;;16.62;67.38
9225;BME280;4647;48.072;11.616;2023-07-31T02:03:43;95374.44;;;16.73;67.38
9225;BME280;4647;48.072;11.616;2023-07-31T02:06:12;95376.03;;;16.62;68.04
9225;BME280;4647;48.072;11.616;2023-07-31T02:08:40;95372.41;;;16.65;67.98
9225;BME280;4647;48.072;11.616;2023-07-31T02:11:09;95382.72;;;16.61;68.26
9225;BME280;4647;48.072;11.616;2023-07-31T02:13:37;95379.28;;;16.69;67.73
9225;BME280;4647;48.072;11.616;2023-07-31T02:16:08;95380.50;;;16.68;67.92
9225;BME280;4647;48.072;11.616;2023-07-31T02:18:37;95368.41;;;16.56;68.49
9225;BME280;4647;48.072;11.616;2023-07-31T02:21:05;95377.78;;;16.55;68.56
9225;BME280;4647;48.072;11.616;2023-07-31T02:23:34;95340.28;;;16.34;68.98
9225;BME280;4647;48.072;11.616;2023-07-31T02:26:02;95356.81;;;16.52;68.94
9225;BME280;4647;48.072;11.616;2023-07-31T02:28:31;95356.31;;;16.45;68.96
9225;BME280;4647;48.072;11.616;2023-07-31T02:30:59;95364.91;;;16.34;69.08
9225;BME280;4647;48.072;11.616;2023-07-31T02:33:30;95352.34;;;16.24;69.57
9225;BME280;4647;48.072;11.616;2023-07-31T02:36:01;95354.06;;;16.31;69.61
9225;BME280;4647;48.072;11.616;2023-07-31T02:38:29;95356.81;;;16.31;69.96
9225;BME280;4647;48.072;11.616;2023-07-31T02:40:58;95340.47;;;16.18;70.46
9225;BME280;4647;48.072;11.616;2023-07-31T02:43:26;95329.13;;;16.07;70.96
9225;BME280;4647;48.072;11.616;2023-07-31T02:45:55;95344.44;;;16.04;70.84
9225;BME280;4647;48.072;11.616;2023-07-31T02:48:23;95347.06;;;15.73;71.67
9225;BME280;4647;48.072;11.616;2023-07-31T02:50:55;95345.47;;;15.50;72.96
9225;BME280;4647;48.072;11.616;2023-07-31T02:53:23;95335.88;;;15.33;73.79
9225;BME280;4647;48.072;11.616;2023-07-31T02:55:53;95328.34;;;15.24;74.14
9225;BME280;4647;48.072;11.616;2023-07-31T02:58:22;95332.19;;;15.14;75.13
9225;BME280;4647;48.072;11.616;2023-07-31T03:00:50;95334.69;;;15.09;75.41
9225;BME280;4647;48.072;11.616;2023-07-31T03:03:19;95332.53;;;14.91;76.81
9225;BME280;4647;48.072;11.616;2023-07-31T03:05:48;95334.38;;;14.81;76.85
9225;BME280;4647;48.072;11.616;2023-07-31T03:08:19;95326.06;;;14.85;77.04
9225;BME280;4647;48.072;11.616;2023-07-31T03:10:48;95334.06;;;14.92;76.44
9225;BME280;4647;48.072;11.616;2023-07-31T03:13:16;95306.31;;;14.81;76.66
9225;BME280;4647;48.072;11.616;2023-07-31T03:15:45;95331.09;;;14.86;76.78
9225;BME280;4647;48.072;11.616;2023-07-31T03:18:13;95325.09;;;14.79;76.93
9225;BME280;4647;48.072;11.616;2023-07-31T03:20:42;95316.81;;;14.69;77.24
9225;BME280;4647;48.072;11.616;2023-07-31T03:23:11;95316.34;;;14.58;77.94
9225;BME280;4647;48.072;11.616;2023-07-31T03:25:55;95319.94;;;14.55;77.99
9225;BME280;4647;48.072;11.616;2023-07-31T03:28:24;95330.78;;;14.42;78.73
9225;BME280;4647;48.072;11.616;2023-07-31T03:30:53;95326.94;;;14.27;79.20
9225;BME280;4647;48.072;11.616;2023-07-31T03:33:21;95315.13;;;14.18;79.54
9225;BME280;4647;48.072;11.616;2023-07-31T03:35:51;95323.66;;;14.20;80.48
9225;BME280;4647;48.072;11.616;2023-07-31T03:38:22;95332.81;;;14.26;80.09
9225;BME280;4647;48.072;11.616;2023-07-31T03:40:54;95337.50;;;14.25;80.31
9225;BME280;4647;48.072;11.616;2023-07-31T03:43:24;95339.69;;;14.30;79.53
9225;BME280;4647;48.072;11.616;2023-07-31T03:45:53;95324.78;;;14.35;79.92
9225;BME280;4647;48.072;11.616;2023-07-31T03:48:21;95296.47;;;14.03;79.65
9225;BME280;4647;48.072;11.616;2023-07-31T03:50:50;95325.53;;;14.23;80.28
9225;BME280;4647;48.072;11.616;2023-07-31T03:53:18;95320.50;;;14.21;79.77
9225;BME280;4647;48.072;11.616;2023-07-31T03:55:49;95330.53;;;14.24;79.41
9225;BME280;4647;48.072;11.616;2023-07-31T03:58:20;95332.41;;;14.40;78.91
9225;BME280;4647;48.072;11.616;2023-07-31T04:00:48;95313.97;;;14.31;79.47
9225;BME280;4647;48.072;11.616;2023-07-31T04:03:17;95326.91;;;14.56;78.82
9225;BME280;4647;48.072;11.616;2023-07-31T04:05:45;95346.69;;;14.86;77.96
9225;BME280;4647;48.072;11.616;2023-07-31T04:08:14;95340.59;;;14.94;77.24
9225;BME280;4647;48.072;11.616;2023-07-31T04:10:42;95337.53;;;15.05;76.88
9225;BME280;4647;48.072;11.616;2023-07-31T04:13:11;95316.25;;;15.00;76.52
9225;BME280;4647;48.072;11.616;2023-07-31T04:15:43;95328.78;;;15.10;76.20
9225;BME280;4647;48.072;11.616;2023-07-31T04:18:15;95328.25;;;15.15;75.88
9225;BME280;4647;48.072;11.616;2023-07-31T04:20:44;95341.03;;;15.18;75.75
9225;BME280;4647;48.072;11.616;2023-07-31T04:23:13;95331.19;;;15.21;75.40
9225;BME280;4647;48.072;11.616;2023-07-31T04:25:51;95332.81;;;15.44;74.91
9225;BME280;4647;48.072;11.616;2023-07-31T04:28:27;95340.97;;;15.56;74.31
9225;BME280;4647;48.072;11.616;2023-07-31T04:31:06;95338.00;;;15.76;73.73
9225;BME280;4647;48.072;11.616;2023-07-31T04:33:42;95338.56;;;15.71;74.29
9225;BME280;4647;48.072;11.616;2023-07-31T04:36:12;95333.63;;;15.79;73.74
9225;BME280;4647;48.072;11.616;2023-07-31T04:38:48;95334.56;;;15.85;73.49
9225;BME280;4647;48.072;11.616;2023-07-31T04:41:21;95325.00;;;16.02;72.83
9225;BME280;4647;48.072;11.616;2023-07-31T04:44:00;95322.09;;;16.18;72.45
9225;BME280;4647;48.072;11.616;2023-07-31T04:46:32;95316.50;;;16.22;72.31
9225;BME280;4647;48.072;11.616;2023-07-31T04:49:00;95298.53;;;16.12;72.31
9225;BME280;4647;48.072;11.616;2023-07-31T04:51:29;95326.03;;;16.39;71.85
9225;BME280;4647;48.072;11.616;2023-07-31T04:53:58;95325.81;;;16.55;70.77
9225;BME280;4647;48.072;11.616;2023-07-31T05:04:42;95283.28;;;19.62;58.47
9225;BME280;4647;48.072;11.616;2023-07-31T05:07:22;95313.94;;;20.08;58.16
9225;BME280;4647;48.072;11.616;2023-07-31T05:09:54;95294.81;;;21.17;54.26
9225;BME280;4647;48.072;11.616;2023-07-31T05:12:25;95274.78;;;21.92;51.76
9225;BME280;4647;48.072;11.616;2023-07-31T05:14:59;95314.47;;;22.67;50.17
9225;BME280;4647;48.072;11.616;2023-07-31T05:17:30;95312.44;;;23.19;48.79
9225;BME280;4647;48.072;11.616;2023-07-31T05:20:01;95273.84;;;22.73;49.02
9225;BME280;4647;48.072;11.616;2023-07-31T05:22:30;95297.06;;;22.81;49.07
9225;BME280;4647;48.072;11.616;2023-07-31T05:24:59;95321.19;;;22.34;50.66
9225;BME280;4647;48.072;11.616;2023-07-31T05:27:28;95283.81;;;21.72;51.18
9225;BME280;4647;48.072;11.616;2023-07-31T05:30:08;95328.28;;;22.41;50.84
9225;BME280;4647;48.072;11.616;2023-07-31T05:32:38;95323.50;;;22.67;49.76
9225;BME280;4647;48.072;11.616;2023-07-31T05:35:09;95316.72;;;23.20;48.70
9225;BME280;4647;48.072;11.616;2023-07-31T05:37:38;95319.34;;;23.78;47.37
9225;BME280;4647;48.072;11.616;2023-07-31T05:40:07;95323.38;;;23.82;47.25
9225;BME280;4647;48.072;11.616;2023-07-31T05:42:42;95300.47;;;23.39;47.75
9225;BME280;4647;48.072;11.616;2023-07-31T05:45:11;95323.69;;;23.96;46.53
9225;BME280;4647;48.072;11.616;2023-07-31T05:47:39;95304.31;;;23.90;46.37
9225;BME280;4647;48.072;11.616;2023-07-31T05:50:12;95292.69;;;23.38;47.27
9225;BME280;4647;48.072;11.616;2023-07-31T05:52:41;95322.06;;;22.98;48.74
9225;BME280;4647;48.072;11.616;2023-07-31T05:55:10;95326.91;;;22.31;50.34
9225;BME280;4647;48.072;11.616;2023-07-31T05:57:38;95312.44;;;22.16;50.24
9225;BME280;4647;48.072;11.616;2023-07-31T06:00:11;95322.72;;;22.15;50.73
9225;BME280;4647;48.072;11.616;2023-07-31T06:02:40;95314.00;;;22.22;51.04
9225;BME280;4647;48.072;11.616;2023-07-31T06:05:23;95313.06;;;21.85;51.17
9225;BME280;4647;48.072;11.616;2023-07-31T06:07:53;95303.66;;;21.56;51.75
9225;BME280;4647;48.072;11.616;2023-07-31T06:10:22;95315.25;;;21.25;52.74
9225;BME280;4647;48.072;11.616;2023-07-31T06:12:52;95299.84;;;21.33;52.52
9225;BME280;4647;48.072;11.616;2023-07-31T06:15:27;95309.03;;;21.45;52.76
9225;BME280;4647;48.072;11.616;2023-07-31T06:17:58;95302.34;;;21.02;53.83
9225;BME280;4647;48.072;11.616;2023-07-31T06:20:34;95315.94;;;21.55;52.34
9225;BME280;4647;48.072;11.616;2023-07-31T06:23:04;95319.75;;;21.43;52.78
9225;BME280;4647;48.072;11.616;2023-07-31T06:25:33;95316.41;;;21.54;52.28
9225;BME280;4647;48.072;11.616;2023-07-31T06:28:02;95304.59;;;21.18;52.76
9225;BME280;4647;48.072;11.616;2023-07-31T06:30:31;95334.16;;;21.18;52.96
9225;BME280;4647;48.072;11.616;2023-07-31T06:33:00;95333.00;;;21.39;52.85
9225;BME280;4647;48.072;11.616;2023-07-31T06:35:29;95315.81;;;21.29;52.66
9225;BME280;4647;48.072;11.616;2023-07-31T06:38:01;95335.78;;;21.24;53.49
9225;BME280;4647;48.072;11.616;2023-07-31T06:40:30;95322.25;;;21.41;53.45
9225;BME280;4647;48.072;11.616;2023-07-31T06:42:59;95333.81;;;21.45;52.83
9225;BME280;4647;48.072;11.616;2023-07-31T06:45:33;95301.50;;;20.96;53.70
9225;BME280;4647;48.072;11.616;2023-07-31T06:48:02;95325.88;;;21.32;53.94
9225;BME280;4647;48.072;11.616;2023-07-31T06:50:32;95322.00;;;21.24;52.44
9225;BME280;4647;48.072;11.616;2023-07-31T06:53:03;95328.47;;;20.92;53.25
9225;BME280;4647;48.072;11.616;2023-07-31T06:55:33;95333.59;;;20.99;52.86
9225;BME280;4647;48.072;11.616;2023-07-31T06:58:01;95324.38;;;21.02;52.56
9225;BME280;4647;48.072;11.616;2023-07-31T07:00:30;95326.53;;;21.42;51.39
9225;BME280;4647;48.072;11.616;2023-07-31T07:02:58;95311.09;;;21.50;50.67
9225;BME280;4647;48.072;11.616;2023-07-31T07:05:27;95312.44;;;21.55;51.15
9225;BME280;4647;48.072;11.616;2023-07-31T07:07:56;95311.84;;;21.51;51.40
9225;BME280;4647;48.072;11.616;2023-07-31T07:10:27;95307.66;;;21.55;50.67
9225;BME280;4647;48.072;11.616;2023-07-31T07:12:56;95305.75;;;21.61;50.66
9225;BME280;4647;48.072;11.616;2023-07-31T07:15:25;95306.91;;;21.95;49.48
9225;BME280;4647;48.072;11.616;2023-07-31T07:17:54;95302.41;;;21.98;49.96
9225;BME280;4647;48.072;11.616;2023-07-31T07:20:22;95311.34;;;22.28;49.72
9225;BME280;4647;48.072;11.616;2023-07-31T07:22:51;95318.75;;;22.42;48.58
9225;BME280;4647;48.072;11.616;2023-07-31T07:25:19;95302.44;;;21.78;49.88
9225;BME280;4647;48.072;11.616;2023-07-31T07:27:50;95312.22;;;21.58;50.99
9225;BME280;4647;48.072;11.616;2023-07-31T07:30:19;95309.81;;;22.27;49.33
9225;BME280;4647;48.072;11.616;2023-07-31T07:32:49;95313.06;;;22.51;48.59
9225;BME280;4647;48.072;11.616;2023-07-31T07:35:18;95322.38;;;22.54;47.94
9225;BME280;4647;48.072;11.616;2023-07-31T07:37:48;95304.03;;;22.77;47.57
9225;BME280;4647;48.072;11.616;2023-07-31T07:40:16;95306.03;;;23.08;48.14
9225;BME280;4647;48.072;11.616;2023-07-31T07:42:45;95308.13;;;23.18;47.17
9225;BME280;4647;48.072;11.616;2023-07-31T07:45:17;95306.66;;;23.23;46.31
9225;BME280;4647;48.072;11.616;2023-07-31T07:47:46;95303.06;;;22.08;48.26
9225;BME280;4647;48.072;11.616;2023-07-31T07:50:14;95301.59;;;22.32;48.11
9225;BME280;4647;48.072;11.616;2023-07-31T07:52:42;95294.88;;;22.39;47.94
9225;BME280;4647;48.072;11.616;2023-07-31T07:55:11;95287.28;;;22.86;46.96
9225;BME280;4647;48.072;11.616;2023-07-31T07:57:39;95279.25;;;23.19;46.04
9225;BME280;4647;48.072;11.616;2023-07-31T08:00:10;95283.34;;;23.35;46.12
9225;BME280;4647;48.072;11.616;2023-07-31T08:02:41;95265.41;;;22.82;46.69
9225;BME280;4647;48.072;11.616;2023-07-31T08:05:10;95266.47;;;23.27;46.10
9225;BME280;4647;48.072;11.616;2023-07-31T08:07:38;95267.09;;;23.48;45.43
9225;BME280;4647;48.072;11.616;2023-07-31T08:10:07;95263.22;;;23.29;45.80
9225;BME280;4647;48.072;11.616;2023-07-31T08:12:35;95258.34;;;24.15;44.83
9225;BME280;4647;48.072;11.616;2023-07-31T08:15:06;95260.72;;;23.79;43.57
9225;BME280;4647;48.072;11.616;2023-07-31T08:17:34;95263.16;;;23.61;43.85
9225;BME280;4647;48.072;11.616;2023-07-31T08:20:07;95263.97;;;22.92;45.14
9225;BME280;4647;48.072;11.616;2023-07-31T08:22:35;95258.84;;;23.17;43.09
9225;BME280;4647;48.072;11.616;2023-07-31T08:25:05;95276.00;;;23.21;43.93
9225;BME280;4647;48.072;11.616;2023-07-31T08:27:36;95277.25;;;23.63;43.20
9225;BME280;4647;48.072;11.616;2023-07-31T08:30:05;95273.81;;;23.84;43.36
9225;BME280;4647;48.072;11.616;2023-07-31T08:32:34;95261.31;;;23.95;42.66
9225;BME280;4647;48.072;11.616;2023-07-31T08:35:06;95263.22;;;24.54;41.78
9225;BME280;4647;48.072;11.616;2023-07-31T08:37:34;95260.50;;;25.09;40.05
9225;BME280;4647;48.072;11.616;2023-07-31T08:40:04;95262.00;;;25.11;40.46
9225;BME280;4647;48.072;11.616;2023-07-31T08:42:43;95274.47;;;23.57;43.52
9225;BME280;4647;48.072;11.616;2023-07-31T08:45:15;95265.78;;;23.86;43.30
9225;BME280;4647;48.072;11.616;2023-07-31T08:47:47;95261.75;;;23.87;42.58
9225;BME280;4647;48.072;11.616;2023-07-31T08:50:20;95258.34;;;23.55;44.40
9225;BME280;4647;48.072;11.616;2023-07-31T08:52:50;95262.06;;;23.47;44.68
9225;BME280;4647;48.072;11.616;2023-07-31T08:55:21;95258.44;;;22.92;44.47
9225;BME280;4647;48.072;11.616;2023-07-31T08:57:52;95259.28;;;22.73;44.70
9225;BME280;4647;48.072;11.616;2023-07-31T09:00:21;95256.72;;;22.38;46.34
9225;BME280;4647;48.072;11.616;2023-07-31T09:02:55;95251.84;;;22.53;45.86
9225;BME280;4647;48.072;11.616;2023-07-31T09:05:31;95256.47;;;22.41;46.43
9225;BME280;4647;48.072;11.616;2023-07-31T09:08:00;95267.53;;;22.15;45.60
9225;BME280;4647;48.072;11.616;2023-07-31T09:10:32;95266.94;;;21.65;47.15
9225;BME280;4647;48.072;11.616;2023-07-31T09:13:01;95263.34;;;21.79;47.47
9225;BME280;4647;48.072;11.616;2023-07-31T09:15:31;95244.19;;;22.16;46.16
9225;BME280;4647;48.072;11.616;2023-07-31T09:18:01;95254.47;;;22.67;45.60
9225;BME280;4647;48.072;11.616;2023-07-31T09:20:32;95255.53;;;22.76;45.48
9225;BME280;4647;48.072;11.616;2023-07-31T09:23:09;95258.66;;;22.57;44.89
9225;BME280;4647;48.072;11.616;2023-07-31T09:25:39;95250.38;;;22.57;46.18
9225;BME280;4647;48.072;11.616;2023-07-31T09:28:10;95242.16;;;22.37;45.08
9225;BME280;4647;48.072;11.616;2023-07-31T09:30:51;95237.22;;;22.78;45.36
9225;BME280;4647;48.072;11.616;2023-07-31T09:33:19;95245.88;;;23.77;42.41
9225;BME280;4647;48.072;11.616;2023-07-31T09:35:55;95242.84;;;23.69;42.87
9225;BME280;4647;48.072;11.616;2023-07-31T09:38:26;95244.28;;;24.35;41.02
9225;BME280;4647;48.072;11.616;2023-07-31T09:40:59;95240.44;;;23.45;41.89
9225;BME280;4647;48.072;11.616;2023-07-31T09:43:28;95224.88;;;23.05;43.52
9225;BME280;4647;48.072;11.616;2023-07-31T09:45:58;95235.28;;;23.21;43.87
9225;BME280;4647;48.072;11.616;2023-07-31T09:48:27;95230.47;;;23.59;43.21
9225;BME280;4647;48.072;11.616;2023-07-31T09:51:04;95228.34;;;23.91;41.97
9225;BME280;4647;48.072;11.616;2023-07-31T09:53:33;95220.00;;;23.85;42.04
9225;BME280;4647;48.072;11.616;2023-07-31T09:56:02;95224.69;;;23.63;42.00
9225;BME280;4647;48.072;11.616;2023-07-31T09:58:34;95223.50;;;23.26;41.91
9225;BME280;4647;48.072;11.616;2023-07-31T10:01:03;95208.16;;;23.74;41.96
9225;BME280;4647;48.072;11.616;2023-07-31T10:03:31;95206.03;;;24.28;40.91
9225;BME280;4647;48.072;11.616;2023-07-31T10:06:04;95200.44;;;24.06;41.12
9225;BME280;4647;48.072;11.616;2023-07-31T10:08:34;95200.78;;;24.41;40.79
9225;BME280;4647;48.072;11.616;2023-07-31T10:11:05;95189.41;;;24.84;39.54
9225;BME280;4647;48.072;11.616;2023-07-31T10:13:36;95194.47;;;24.58;38.30
9225;BME280;4647;48.072;11.616;2023-07-31T10:16:05;95192.00;;;23.61;41.49
9225;BME280;4647;48.072;11.616;2023-07-31T10:18:35;95178.38;;;23.52;41.20
9225;BME280;4647;48.072;11.616;2023-07-31T10:21:07;95176.44;;;23.69;42.59
9225;BME280;4647;48.072;11.616;2023-07-31T10:23:36;95156.91;;;24.06;40.85
9225;BME280;4647;48.072;11.616;2023-07-31T10:26:07;95164.22;;;24.21;40.42
9225;BME280;4647;48.072;11.616;2023-07-31T10:28:36;95161.56;;;23.61;41.42
9225;BME280;4647;48.072;11.616;2023-07-31T10:31:07;95150.75;;;23.63;41.37
9225;BME280;4647;48.072;11.616;2023-07-31T10:33:36;95160.50;;;23.47;40.71
9225;BME280;4647;48.072;11.616;2023-07-31T10:36:17;95148.69;;;23.47;41.13
9225;BME280;4647;48.072;11.616;2023-07-31T10:38:48;95159.94;;;24.14;39.47
9225;BME280;4647;48.072;11.616;2023-07-31T10:41:17;95156.19;;;24.62;38.69
9225;BME280;4647;48.072;11.616;2023-07-31T10:43:46;95165.28;;;25.54;36.84
9225;BME280;4647;48.072;11.616;2023-07-31T10:46:15;95156.19;;;26.11;33.91
9225;BME280;4647;48.072;11.616;2023-07-31T10:48:43;95161.91;;;25.78;35.18
9225;BME280;4647;48.072;11.616;2023-07-31T10:51:12;95136.53;;;24.65;36.19
9225;BME280;4647;48.072;11.616;2023-07-31T10:53:45;95158.41;;;24.07;38.85
9225;BME280;4647;48.072;11.616;2023-07-31T10:56:14;95153.44;;;24.39;39.09
9225;BME280;4647;48.072;11.616;2023-07-31T10:59:00;95157.38;;;25.17;36.68
9225;BME280;4647;48.072;11.616;2023-07-31T11:01:50;95144.44;;;25.30;37.03
9225;BME280;4647;48.072;11.616;2023-07-31T11:04:22;95147.22;;;25.30;36.83
9225;BME280;4647;48.072;11.616;2023-07-31T11:06:57;95149.06;;;25.17;37.09
9225;BME280;4647;48.072;11.616;2023-07-31T11:09:31;95144.09;;;24.65;36.61
9225;BME280;4647;48.072;11.616;2023-07-31T11:12:01;95138.06;;;24.49;38.26
9225;BME280;4647;48.072;11.616;2023-07-31T11:14:29;95130.34;;;23.55;38.89
9225;BME280;4647;48.072;11.616;2023-07-31T11:16:57;95122.66;;;23.11;40.21
9225;BME280;4647;48.072;11.616;2023-07-31T11:19:26;95123.13;;;23.04;41.85
9225;BME280;4647;48.072;11.616;2023-07-31T11:21:55;95133.00;;;23.21;40.70
9225;BME280;4647;48.072;11.616;2023-07-31T11:24:24;95124.41;;;23.14;41.33
9225;BME280;4647;48.072;11.616;2023-07-31T11:26:55;95121.47;;;23.23;40.47
9225;BME280;4647;48.072;11.616;2023-07-31T11:29:27;95122.03;;;22.90;41.96
9225;BME280;4647;48.072;11.616;2023-07-31T11:31:56;95127.94;;;23.79;40.45
9225;BME280;4647;48.072;11.616;2023-07-31T11:34:25;95111.38;;;24.35;40.07
9225;BME280;4647;48.072;11.616;2023-07-31T11:36:53;95124.91;;;23.77;40.13
9225;BME280;4647;48.072;11.616;2023-07-31T11:39:23;95103.03;;;23.68;40.48
9225;BME280;4647;48.072;11.616;2023-07-31T11:42:02;95093.00;;;24.49;39.42
9225;BME280;4647;48.072;11.616;2023-07-31T11:44:38;95104.78;;;24.72;37.55
9225;BME280;4647;48.072;11.616;2023-07-31T11:47:11;95083.16;;;23.86;39.20
9225;BME280;4647;48.072;11.616;2023-07-31T11:49:40;95096.75;;;24.24;39.40
9225;BME280;4647;48.072;11.616;2023-07-31T11:52:09;95090.47;;;24.12;40.78
9225;BME280;4647;48.072;11.616;2023-07-31T11:54:39;95076.63;;;24.51;39.98
9225;BME280;4647;48.072;11.616;2023-07-31T11:57:10;95086.88;;;24.90;38.51
9225;BME280;4647;48.072;11.616;2023-07-31T11:59:40;95080.66;;;24.50;38.45
9225;BME280;4647;48.072;11.616;2023-07-31T12:02:08;95070.06;;;24.65;37.83
9225;BME280;4647;48.072;11.616;2023-07-31T12:04:37;95067.31;;;24.48;37.88
9225;BME280;4647;48.072;11.616;2023-07-31T12:07:06;95062.53;;;24.32;37.92
9225;BME280;4647;48.072;11.616;2023-07-31T12:09:34;95063.28;;;24.49;38.59
9225;BME280;4647;48.072;11.616;2023-07-31T12:12:11;95051.91;;;24.59;37.30
9225;BME280;4647;48.072;11.616;2023-07-31T12:14:47;95056.84;;;25.05;36.76
9225;BME280;4647;48.072;11.616;2023-07-31T12:17:17;95046.97;;;25.62;36.35
9225;BME280;4647;48.072;11.616;2023-07-31T12:19:48;95033.31;;;25.64;35.79
9225;BME280;4647;48.072;11.616;2023-07-31T12:22:17;95043.38;;;25.73;36.22
9225;BME280;4647;48.072;11.616;2023-07-31T12:24:45;95026.78;;;25.61;35.95
9225;BME280;4647;48.072;11.616;2023-07-31T12:27:18;95033.38;;;25.53;36.89
9225;BME280;4647;48.072;11.616;2023-07-31T12:29:50;95016.38;;;26.33;35.84
9225;BME280;4647;48.072;11.616;2023-07-31T12:32:20;95017.41;;;27.03;33.72
9225;BME280;4647;48.072;11.616;2023-07-31T12:34:49;95017.47;;;25.59;34.81
9225;BME280;4647;48.072;11.616;2023-07-31T12:37:17;95019.41;;;26.05;35.79
9225;BME280;4647;48.072;11.616;2023-07-31T12:39:46;95007.97;;;26.14;35.15
9225;BME280;4647;48.072;11.616;2023-07-31T12:42:17;95002.03;;;25.69;36.55
9225;BME280;4647;48.072;11.616;2023-07-31T12:44:46;95007.41;;;26.46;35.33
9225;BME280;4647;48.072;11.616;2023-07-31T12:47:15;94996.69;;;26.31;34.33
9225;BME280;4647;48.072;11.616;2023-07-31T12:49:44;94998.16;;;26.62;32.86
9225;BME280;4647;48.072;11.616;2023-07-31T12:52:12;94982.22;;;26.14;33.90
9225;BME280;4647;48.072;11.616;2023-07-31T12:54:41;94979.41;;;25.54;34.90
9225;BME280;4647;48.072;11.616;2023-07-31T12:57:09;94970.44;;;26.02;35.45
9225;BME280;4647;48.072;11.616;2023-07-31T12:59:40;94977.91;;;26.43;34.43
9225;BME280;4647;48.072;11.616;2023-07-31T13:02:09;94995.50;;;26.75;33.92
9225;BME280;4647;48.072;11.616;2023-07-31T13:04:37;94986.91;;;26.49;34.87
9225;BME280;4647;48.072;11.616;2023-07-31T13:07:06;94991.13;;;26.80;33.78
9225;BME280;4647;48.072;11.616;2023-07-31T13:09:34;94979.22;;;26.60;33.61
9225;BME280;4647;48.072;11.616;2023-07-31T13:12:04;94974.22;;;26.35;34.33
9225;BME280;4647;48.072;11.616;2023-07-31T13:14:32;94977.16;;;26.42;34.27
9225;BME280;4647;48.072;11.616;2023-07-31T13:17:03;94973.59;;;26.66;33.34
9225;BME280;4647;48.072;11.616;2023-07-31T13:19:32;94985.28;;;26.10;33.02
9225;BME280;4647;48.072;11.616;2023-07-31T13:22:00;94979.34;;;25.95;34.41
9225;BME280;4647;48.072;11.616;2023-07-31T13:24:29;94985.22;;;26.16;32.59
9225;BME280;4647;48.072;11.616;2023-07-31T13:26:57;94991.47;;;25.62;33.89
9225;BME280;4647;48.072;11.616;2023-07-31T13:29:26;94977.91;;;25.17;34.00
9225;BME280;4647;48.072;11.616;2023-07-31T13:31:55;94967.13;;;25.02;34.45
9225;BME280;4647;48.072;11.616;2023-07-31T13:34:26;94973.25;;;25.31;33.22